createdAt,value
2022-10-17T00:01:41.715Z,100820.91
2022-10-17T00:04:08.376Z,100827.94
2022-10-17T00:06:35.349Z,100822.63
2022-10-17T00:09:02.186Z,100818.25
2022-10-17T00:11:28.800Z,100821.72
2022-10-17T00:13:56.778Z,100813.88
2022-10-17T00:16:33.514Z,100816.47
2022-10-17T00:19:00.886Z,100826.13
2022-10-17T00:21:27.545Z,100825.28
2022-10-17T00:23:54.602Z,100830.56
2022-10-17T00:26:21.249Z,100838.50
2022-10-17T00:28:52.343Z,100837.63
2022-10-17T00:31:20.643Z,100829.72
2022-10-17T00:33:47.518Z,100834.13
2022-10-17T00:36:17.731Z,100836.75
2022-10-17T00:38:46.740Z,100835.88
2022-10-17T00:41:17.026Z,100832.34
2022-10-17T00:44:05.669Z,100839.41
2022-10-17T00:46:39.636Z,100834.13
2022-10-17T00:49:10.119Z,100842.03
2022-10-17T00:52:10.572Z,100840.25
2022-10-17T00:54:44.218Z,100847.31
2022-10-17T00:57:11.607Z,100845.53
2022-10-17T00:59:41.806Z,100848.13
2022-10-17T01:02:17.730Z,100845.47
2022-10-17T01:04:47.865Z,100846.31
2022-10-17T01:07:14.489Z,100840.16
2022-10-17T01:09:41.851Z,100845.22
2022-10-17T01:12:31.735Z,100844.16
2022-10-17T01:15:19.145Z,100833.59
2022-10-17T01:18:07.169Z,100837.19
2022-10-17T01:20:49.013Z,100838.94
2022-10-17T01:23:41.607Z,100838.16
2022-10-17T01:26:37.632Z,100847.78
2022-10-17T01:29:06.929Z,100841.63
2022-10-17T01:32:15.317Z,100844.31
2022-10-17T01:35:09.089Z,100846.91
2022-10-17T01:40:22.111Z,100842.50
2022-10-17T01:42:56.984Z,100859.19
2022-10-17T01:45:31.714Z,100848.66
2022-10-17T01:48:02.755Z,100847.75
2022-10-17T01:50:35.580Z,100838.03
2022-10-17T01:53:11.837Z,100834.44
2022-10-17T01:55:42.506Z,100837.03
2022-10-17T01:58:17.078Z,100829.09
2022-10-17T02:00:45.676Z,100825.53
2022-10-17T02:03:19.009Z,100819.47
2022-10-17T02:05:46.016Z,100822.16
2022-10-17T02:08:13.353Z,100821.34
2022-10-17T02:11:17.901Z,100823.19
2022-10-17T02:13:53.638Z,100812.72
2022-10-17T02:16:22.842Z,100811.91
2022-10-17T02:19:16.691Z,100818.06
2022-10-17T02:22:19.316Z,100822.47
2022-10-17T02:25:03.844Z,100832.06
2022-10-17T02:28:00.912Z,100845.22
2022-10-17T02:30:47.187Z,100852.19
2022-10-17T02:33:29.414Z,100851.31
2022-10-17T02:36:01.261Z,100860.94
2022-10-17T02:38:30.143Z,100861.84
2022-10-17T02:40:56.970Z,100861.84
2022-10-17T02:43:24.013Z,100864.41
2022-10-17T02:45:52.718Z,100860.84
2022-10-17T02:48:32.560Z,100867.84
2022-10-17T02:51:08.993Z,100859.91
2022-10-17T02:53:52.379Z,100853.72
2022-10-17T02:56:21.322Z,100864.13
2022-10-17T02:58:53.894Z,100872.78
2022-10-17T03:01:21.139Z,100873.78
2022-10-17T03:03:47.903Z,100880.03
2022-10-17T03:06:14.544Z,100880.91
2022-10-17T03:08:41.098Z,100883.63
2022-10-17T03:11:09.286Z,100878.31
2022-10-17T03:13:38.993Z,100876.59
2022-10-17T03:16:06.757Z,100876.59
2022-10-17T03:18:33.383Z,100867.69
2022-10-17T03:20:59.962Z,100867.59
2022-10-17T03:23:26.548Z,100858.75
2022-10-17T03:25:53.111Z,100863.13
2022-10-17T03:28:19.680Z,100869.31
2022-10-17T03:30:46.259Z,100876.38
2022-10-17T03:33:12.812Z,100886.94
2022-10-17T03:35:40.301Z,100882.53
2022-10-17T03:38:07.022Z,100886.94
2022-10-17T03:40:33.610Z,100883.41
2022-10-17T03:43:00.199Z,100892.13
2022-10-17T03:45:26.783Z,100895.63
2022-10-17T03:47:53.351Z,100891.19
2022-10-17T03:50:19.904Z,100892.00
2022-10-17T03:52:48.518Z,100890.22
2022-10-17T03:55:16.033Z,100896.31
2022-10-17T03:57:45.368Z,100896.22
2022-10-17T04:00:13.162Z,100896.28
2022-10-17T04:02:39.761Z,100894.44
2022-10-17T04:05:07.321Z,100897.91
2022-10-17T04:07:37.314Z,100900.53
2022-10-17T04:10:05.203Z,100904.88
2022-10-17T04:12:31.933Z,100891.69
2022-10-17T04:14:58.712Z,100893.41
2022-10-17T04:17:25.283Z,100906.56
2022-10-17T04:19:51.914Z,100909.13
2022-10-17T04:22:18.537Z,100905.63
2022-10-17T04:24:45.168Z,100892.47
2022-10-17T04:27:11.812Z,100904.72
2022-10-17T04:29:38.336Z,100897.63
2022-10-17T04:32:05.038Z,100901.06
2022-10-17T04:34:31.625Z,100899.31
2022-10-17T04:36:58.188Z,100903.72
2022-10-17T04:39:24.743Z,100909.84
2022-10-17T04:41:51.347Z,100909.00
2022-10-17T04:44:18.227Z,100909.88
2022-10-17T04:46:44.846Z,100903.78
2022-10-17T04:49:11.389Z,100897.44
2022-10-17T04:51:38.556Z,100897.41
2022-10-17T04:54:05.346Z,100895.59
2022-10-17T04:56:31.999Z,100902.56
2022-10-17T04:58:59.698Z,100899.97
2022-10-17T05:01:27.170Z,100898.16
2022-10-17T05:03:54.416Z,100902.63
2022-10-17T05:06:23.906Z,100905.22
2022-10-17T05:08:50.617Z,100912.25
2022-10-17T05:11:26.022Z,100908.72
2022-10-17T05:14:00.831Z,100914.81
2022-10-17T05:16:28.427Z,100920.94
2022-10-17T05:18:57.286Z,100916.59
2022-10-17T05:21:25.687Z,100918.31
2022-10-17T05:23:52.689Z,100924.44
2022-10-17T05:26:19.816Z,100933.19
2022-10-17T05:28:46.583Z,100925.28
2022-10-17T05:31:13.434Z,100939.38
2022-10-17T05:33:40.274Z,100945.50
2022-10-17T05:36:07.735Z,100944.63
2022-10-17T05:38:34.487Z,100950.78
2022-10-17T05:41:03.271Z,100956.13
2022-10-17T05:43:31.061Z,100956.13
2022-10-17T05:45:58.008Z,100957.03
2022-10-17T05:48:25.432Z,100956.22
2022-10-17T05:50:59.446Z,100965.16
2022-10-17T05:53:26.454Z,100960.91
2022-10-17T05:56:01.314Z,100964.41
2022-10-17T06:01:15.118Z,100967.19
2022-10-17T06:03:41.721Z,100968.19
2022-10-17T06:06:13.136Z,100972.66
2022-10-17T06:08:39.784Z,100971.91
2022-10-17T06:11:09.873Z,100972.97
2022-10-17T06:13:38.029Z,100975.69
2022-10-17T06:16:04.930Z,100976.63
2022-10-17T06:18:32.383Z,100972.44
2022-10-17T06:21:07.034Z,100976.19
2022-10-17T06:23:33.981Z,100973.78
2022-10-17T06:26:01.938Z,100972.19
2022-10-17T06:28:29.009Z,100975.91
2022-10-17T06:30:55.973Z,100981.38
2022-10-17T06:33:23.481Z,100988.78
2022-10-17T06:35:57.026Z,100988.94
2022-10-17T06:38:23.660Z,100995.16
2022-10-17T06:40:50.249Z,100998.69
2022-10-17T06:43:16.797Z,101011.91
2022-10-17T06:45:45.696Z,101001.00
2022-10-17T06:48:12.666Z,101002.97
2022-10-17T06:50:39.500Z,101014.63
2022-10-17T06:53:06.106Z,101013.72
2022-10-17T06:55:33.027Z,101013.25
2022-10-17T06:57:59.612Z,101014.81
2022-10-17T07:00:26.950Z,101025.22
2022-10-17T07:02:53.560Z,101028.41
2022-10-17T07:05:20.220Z,101041.38
2022-10-17T07:07:48.586Z,101041.63
2022-10-17T07:10:18.468Z,101041.75
2022-10-17T07:12:45.981Z,101042.34
2022-10-17T07:15:13.326Z,101043.25
2022-10-17T07:17:40.201Z,101045.84
2022-10-17T07:20:07.608Z,101052.59
2022-10-17T07:22:34.259Z,101048.91
2022-10-17T07:25:00.820Z,101052.56
2022-10-17T07:27:27.913Z,101049.88
2022-10-17T07:29:54.758Z,101054.06
2022-10-17T07:32:21.352Z,101055.75
2022-10-17T07:34:48.931Z,101054.59
2022-10-17T07:37:15.567Z,101061.94
2022-10-17T07:39:42.124Z,101061.91
2022-10-17T07:42:09.014Z,101072.09
2022-10-17T07:44:35.929Z,101073.69
2022-10-17T07:47:02.706Z,101072.56
2022-10-17T07:49:29.514Z,101062.25
2022-10-17T07:51:56.172Z,101073.09
2022-10-17T07:54:23.157Z,101072.41
2022-10-17T07:56:50.917Z,101062.28
2022-10-17T07:59:20.368Z,101075.44
2022-10-17T08:01:47.382Z,101077.22
2022-10-17T08:04:16.947Z,101063.13
2022-10-17T08:06:43.614Z,101058.81
2022-10-17T08:09:10.183Z,101055.72
2022-10-17T08:11:37.356Z,101058.78
2022-10-17T08:14:04.110Z,101053.16
2022-10-17T08:16:31.145Z,101052.44
2022-10-17T08:18:57.860Z,101061.44
2022-10-17T08:21:24.545Z,101063.06
2022-10-17T08:23:51.187Z,101065.75
2022-10-17T08:26:20.122Z,101062.56
2022-10-17T08:28:47.869Z,101063.19
2022-10-17T08:31:19.768Z,101068.81
2022-10-17T08:33:48.218Z,101073.72
2022-10-17T08:36:17.834Z,101069.91
2022-10-17T08:38:47.959Z,101065.53
2022-10-17T08:41:47.523Z,101062.16
2022-10-17T08:44:33.379Z,101057.53
2022-10-17T08:47:02.244Z,101057.56
2022-10-17T08:49:55.899Z,101050.81
2022-10-17T08:52:43.096Z,101055.63
2022-10-17T08:55:29.582Z,101055.16
2022-10-17T08:57:56.269Z,101061.03
2022-10-17T09:00:22.989Z,101055.41
2022-10-17T09:03:32.781Z,101054.72
2022-10-17T09:06:15.112Z,101051.72
2022-10-17T09:08:55.445Z,101057.38
2022-10-17T09:12:13.034Z,101060.13
2022-10-17T09:15:03.107Z,101053.97
2022-10-17T09:17:53.492Z,101062.88
2022-10-17T09:20:28.117Z,101063.66
2022-10-17T09:23:02.509Z,101068.50
2022-10-17T09:25:39.845Z,101068.47
2022-10-17T09:28:24.249Z,101067.44
2022-10-17T09:30:59.721Z,101064.94
2022-10-17T09:33:35.954Z,101063.00
2022-10-17T09:36:18.007Z,101053.09
2022-10-17T09:38:56.243Z,101050.34
2022-10-17T09:41:47.453Z,101044.44
2022-10-17T09:44:33.164Z,101048.78
2022-10-17T09:47:17.994Z,101046.81
2022-10-17T09:49:47.485Z,101041.06
2022-10-17T09:52:19.234Z,101045.63
2022-10-17T09:54:49.299Z,101045.75
2022-10-17T09:57:18.132Z,101056.09
2022-10-17T09:59:48.846Z,101051.47
2022-10-17T10:02:25.103Z,101045.34
2022-10-17T10:05:03.645Z,101043.97
2022-10-17T10:07:39.214Z,101047.09
2022-10-17T10:10:22.660Z,101047.00
2022-10-17T10:13:14.143Z,101044.22
2022-10-17T10:15:44.692Z,101041.63
2022-10-17T10:18:26.653Z,101040.00
2022-10-17T10:21:16.057Z,101037.69
2022-10-17T10:23:45.482Z,101042.59
2022-10-17T10:26:23.569Z,101040.09
2022-10-17T10:28:58.827Z,101047.28
2022-10-17T10:31:42.832Z,101041.19
2022-10-17T10:34:20.651Z,101040.31
2022-10-17T10:37:17.242Z,101051.03
2022-10-17T10:39:59.428Z,101044.84
2022-10-17T10:42:39.535Z,101044.06
2022-10-17T10:45:35.991Z,101039.19
2022-10-17T10:48:26.761Z,101036.81
2022-10-17T10:51:04.505Z,101039.25
2022-10-17T10:53:44.365Z,101028.75
2022-10-17T10:56:49.875Z,101031.41
2022-10-17T10:59:43.305Z,101014.47
2022-10-17T11:02:25.350Z,101018.88
2022-10-17T11:05:13.767Z,101006.69
2022-10-17T11:08:08.068Z,101027.28
2022-10-17T11:10:41.448Z,101024.13
2022-10-17T11:13:18.123Z,101020.94
2022-10-17T11:15:51.621Z,101011.91
2022-10-17T11:18:18.113Z,101017.31
2022-10-17T11:21:13.415Z,101011.91
2022-10-17T11:23:48.824Z,101009.09
2022-10-17T11:26:28.117Z,101009.34
2022-10-17T11:28:56.487Z,101010.56
2022-10-17T11:31:26.978Z,101006.97
2022-10-17T11:34:03.881Z,101006.84
2022-10-17T11:36:34.720Z,101003.59
2022-10-17T11:39:09.186Z,101000.69
2022-10-17T11:42:03.242Z,101001.53
2022-10-17T11:44:42.953Z,100996.28
2022-10-17T11:47:28.399Z,100998.25
2022-10-17T11:52:59.936Z,100990.69
2022-10-17T11:55:29.561Z,100983.72
2022-10-17T11:58:14.458Z,100986.97
2022-10-17T12:00:51.485Z,100976.06
2022-10-17T12:03:18.036Z,100974.75
2022-10-17T12:05:58.978Z,100975.88
2022-10-17T12:08:44.511Z,100972.41
2022-10-17T12:11:45.906Z,100978.09
2022-10-17T12:14:36.118Z,100977.59
2022-10-17T12:17:04.346Z,100977.06
2022-10-17T12:19:36.702Z,100963.09
2022-10-17T12:22:41.649Z,100965.50
2022-10-17T12:25:19.137Z,100967.44
2022-10-17T12:27:48.623Z,100968.34
2022-10-17T12:30:19.977Z,100967.44
2022-10-17T12:33:07.952Z,100967.44
2022-10-17T12:35:37.199Z,100968.97
2022-10-17T12:38:21.079Z,100973.31
2022-10-17T12:41:07.869Z,100966.38
2022-10-17T12:43:44.763Z,100971.84
2022-10-17T12:46:12.342Z,100959.47
2022-10-17T12:48:39.064Z,100960.03
2022-10-17T12:54:16.641Z,100958.19
2022-10-17T12:56:48.120Z,100968.34
2022-10-17T12:59:22.552Z,100957.00
2022-10-17T13:01:55.087Z,100962.69
2022-10-17T13:04:22.614Z,100958.75
2022-10-17T13:06:54.471Z,100969.31
2022-10-17T13:09:32.706Z,100964.06
2022-10-17T13:12:03.750Z,100966.28
2022-10-17T13:14:33.371Z,100964.28
2022-10-17T13:17:04.241Z,100969.59
2022-10-17T13:19:40.144Z,100963.78
2022-10-17T13:22:21.322Z,100964.59
2022-10-17T13:24:49.027Z,100961.38
2022-10-17T13:27:29.802Z,100963.97
2022-10-17T13:29:58.354Z,100964.88
2022-10-17T13:32:27.269Z,100955.94
2022-10-17T13:35:07.462Z,100954.19
2022-10-17T13:37:35.777Z,100951.28
2022-10-17T13:40:17.520Z,100940.75
2022-10-17T13:42:52.410Z,100941.13
2022-10-17T13:45:34.407Z,100942.38
2022-10-17T13:48:08.268Z,100948.72
2022-10-17T13:50:45.034Z,100938.22
2022-10-17T13:53:17.461Z,100944.44
2022-10-17T13:56:26.797Z,100949.28
2022-10-17T13:58:57.736Z,100951.63
2022-10-17T14:01:30.872Z,100944.09
2022-10-17T14:04:08.861Z,100951.47
2022-10-17T14:06:45.200Z,100947.75
2022-10-17T14:09:26.706Z,100944.38
2022-10-17T14:12:02.444Z,100942.75
2022-10-17T14:14:46.064Z,100939.19
2022-10-17T14:17:28.819Z,100941.16
2022-10-17T14:20:34.522Z,100933.38
2022-10-17T14:23:10.811Z,100936.94
2022-10-17T14:25:43.283Z,100941.53
2022-10-17T14:28:13.982Z,100946.16
2022-10-17T14:31:01.690Z,100945.53
2022-10-17T14:33:32.102Z,100943.84
2022-10-17T14:36:01.970Z,100943.19
2022-10-17T14:38:30.086Z,100932.66
2022-10-17T14:41:37.347Z,100937.16
2022-10-17T14:44:07.537Z,100934.66
2022-10-17T14:46:37.962Z,100936.91
2022-10-17T14:49:21.802Z,100939.75
2022-10-17T14:52:23.683Z,100950.94
2022-10-17T14:54:50.420Z,100940.59
2022-10-17T14:57:27.477Z,100941.72
2022-10-17T14:59:56.382Z,100941.25
2022-10-17T15:02:29.232Z,100930.88
2022-10-17T15:04:56.284Z,100928.63
2022-10-17T15:07:24.003Z,100932.38
2022-10-17T15:09:52.884Z,100929.88
2022-10-17T15:12:25.296Z,100932.03
2022-10-17T15:14:53.317Z,100926.97
2022-10-17T15:17:30.236Z,100927.03
2022-10-17T15:19:59.404Z,100925.75
2022-10-17T15:22:26.645Z,100932.38
2022-10-17T15:24:53.492Z,100923.75
2022-10-17T15:27:25.955Z,100923.13
2022-10-17T15:29:53.208Z,100933.28
2022-10-17T15:32:19.917Z,100929.19
2022-10-17T15:34:46.697Z,100929.47
2022-10-17T15:37:18.953Z,100916.38
2022-10-17T15:39:53.361Z,100921.81
2022-10-17T15:42:23.207Z,100921.34
2022-10-17T15:44:50.471Z,100918.34
2022-10-17T15:47:23.540Z,100923.19
2022-10-17T15:49:50.400Z,100925.41
2022-10-17T15:52:17.031Z,100922.25
2022-10-17T15:54:43.613Z,100924.47
2022-10-17T15:57:18.260Z,100915.06
2022-10-17T15:59:47.113Z,100928.75
2022-10-17T16:02:15.821Z,100925.63
2022-10-17T16:04:43.380Z,100922.34
2022-10-17T16:07:10.847Z,100927.91
2022-10-17T16:09:37.613Z,100921.84
2022-10-17T16:12:06.411Z,100915.03
2022-10-17T16:14:33.251Z,100929.41
2022-10-17T16:17:00.397Z,100921.44
2022-10-17T16:19:30.107Z,100921.63
2022-10-17T16:21:59.670Z,100918.13
2022-10-17T16:24:28.825Z,100928.19
2022-10-17T16:26:55.395Z,100932.88
2022-10-17T16:29:21.982Z,100928.47
2022-10-17T16:31:48.571Z,100928.75
2022-10-17T16:34:16.021Z,100933.56
2022-10-17T16:36:42.947Z,100930.16
2022-10-17T16:39:09.802Z,100934.94
2022-10-17T16:41:38.365Z,100935.19
2022-10-17T16:44:10.863Z,100932.69
2022-10-17T16:46:37.795Z,100938.31
2022-10-17T16:49:07.791Z,100926.03
2022-10-17T16:51:35.990Z,100937.78
2022-10-17T16:54:04.662Z,100929.13
2022-10-17T16:56:32.919Z,100932.72
2022-10-17T16:59:00.813Z,100931.88
2022-10-17T17:01:29.429Z,100930.38
2022-10-17T17:03:56.959Z,100932.19
2022-10-17T17:06:28.379Z,100928.81
2022-10-17T17:08:56.456Z,100933.50
2022-10-17T17:11:25.822Z,100930.97
2022-10-17T17:13:54.803Z,100932.03
2022-10-17T17:16:23.449Z,100929.38
2022-10-17T17:18:55.410Z,100922.41
2022-10-17T17:21:22.493Z,100926.97
2022-10-17T17:23:49.153Z,100927.91
2022-10-17T17:26:18.583Z,100931.63
2022-10-17T17:28:45.876Z,100932.72
2022-10-17T17:31:23.878Z,100931.19
2022-10-17T17:33:51.823Z,100928.44
2022-10-17T17:36:22.732Z,100928.41
2022-10-17T17:38:51.301Z,100923.16
2022-10-17T17:41:20.215Z,100936.44
2022-10-17T17:43:48.049Z,100931.88
2022-10-17T17:46:17.083Z,100929.41
2022-10-17T17:48:44.900Z,100924.06
2022-10-17T17:51:13.743Z,100929.41
2022-10-17T17:53:40.492Z,100930.31
2022-10-17T17:56:14.294Z,100917.84
2022-10-17T17:58:45.884Z,100924.94
2022-10-17T18:01:18.343Z,100928.59
2022-10-17T18:03:45.850Z,100934.75
2022-10-17T18:06:12.901Z,100938.28
2022-10-17T18:08:40.163Z,100945.50
2022-10-17T18:11:06.747Z,100931.47
2022-10-17T18:13:33.324Z,100940.34
2022-10-17T18:16:01.621Z,100944.06
2022-10-17T18:18:30.632Z,100940.66
2022-10-17T18:21:00.945Z,100947.81
2022-10-17T18:23:27.553Z,100953.25
2022-10-17T18:25:58.480Z,100952.41
2022-10-17T18:28:25.270Z,100945.41
2022-10-17T18:30:52.485Z,100946.38
2022-10-17T18:33:19.127Z,100940.22
2022-10-17T18:35:46.087Z,100941.19
2022-10-17T18:38:12.857Z,100944.06
2022-10-17T18:40:39.499Z,100952.06
2022-10-17T18:43:06.524Z,100949.50
2022-10-17T18:45:33.525Z,100946.91
2022-10-17T18:48:01.611Z,100946.06
2022-10-17T18:50:29.582Z,100940.84
2022-10-17T18:52:56.242Z,100951.56
2022-10-17T18:55:22.885Z,100940.09
2022-10-17T18:57:50.498Z,100950.72
2022-10-17T19:00:17.618Z,100951.69
2022-10-17T19:02:49.501Z,100954.44
2022-10-17T19:05:16.145Z,100950.06
2022-10-17T19:07:42.715Z,100948.34
2022-10-17T19:10:09.547Z,100952.94
2022-10-17T19:12:37.146Z,100953.94
2022-10-17T19:15:04.162Z,100956.81
2022-10-17T19:17:31.150Z,100959.59
2022-10-17T19:19:58.303Z,100958.91
2022-10-17T19:22:24.947Z,100953.75
2022-10-17T19:24:51.624Z,100948.53
2022-10-17T19:27:20.866Z,100957.53
2022-10-17T19:29:47.578Z,100949.69
2022-10-17T19:32:17.895Z,100955.19
2022-10-17T19:34:47.389Z,100957.09
2022-10-17T19:37:14.814Z,100961.66
2022-10-17T19:39:41.504Z,100958.22
2022-10-17T19:42:09.551Z,100960.97
2022-10-17T19:44:36.279Z,100957.59
2022-10-17T19:47:02.869Z,100967.47
2022-10-17T19:49:29.582Z,100968.41
2022-10-17T19:52:03.856Z,100956.06
2022-10-17T19:54:30.567Z,100954.50
2022-10-17T19:56:57.529Z,100958.19
2022-10-17T20:01:53.352Z,100960.22
2022-10-17T20:04:22.268Z,100957.66
2022-10-17T20:06:49.014Z,100955.94
2022-10-17T20:09:17.245Z,100952.38
2022-10-17T20:11:44.418Z,100953.22
2022-10-17T20:14:11.203Z,100959.34
2022-10-17T20:16:39.594Z,100957.56
2022-10-17T20:19:11.385Z,100960.22
2022-10-17T20:21:40.944Z,100960.28
2022-10-17T20:24:11.129Z,100965.75
2022-10-17T20:26:39.441Z,100972.97
2022-10-17T20:29:13.328Z,100976.59
2022-10-17T20:31:41.439Z,100974.03
2022-10-17T20:34:12.007Z,100970.69
2022-10-17T20:36:38.655Z,100984.94
2022-10-17T20:39:06.560Z,100972.69
2022-10-17T20:41:33.806Z,100968.47
2022-10-17T20:44:00.455Z,100976.41
2022-10-17T20:46:36.988Z,100969.19
2022-10-17T20:49:07.137Z,100961.84
2022-10-17T20:51:34.745Z,100967.03
2022-10-17T20:54:02.939Z,100979.44
2022-10-17T20:56:31.482Z,100987.47
2022-10-17T20:59:00.566Z,100982.34
2022-10-17T21:01:28.907Z,100978.94
2022-10-17T21:03:58.901Z,100970.28
2022-10-17T21:06:27.977Z,100973.88
2022-10-17T21:08:56.069Z,100976.41
2022-10-17T21:11:25.238Z,100984.38
2022-10-17T21:14:18.398Z,100987.06
2022-10-17T21:16:46.285Z,100989.97
2022-10-17T21:19:13.951Z,100975.00
2022-10-17T21:21:44.199Z,100974.16
2022-10-17T21:24:14.634Z,100968.78
2022-10-17T21:26:42.720Z,100974.88
2022-10-17T21:29:12.070Z,100966.91
2022-10-17T21:31:42.531Z,100966.91
2022-10-17T21:34:18.917Z,100968.66
2022-10-17T21:36:46.009Z,100965.13
2022-10-17T21:39:14.455Z,100964.22
2022-10-17T21:41:42.219Z,100959.75
2022-10-17T21:44:14.751Z,100965.03
2022-10-17T21:46:41.603Z,100961.41
2022-10-17T21:49:10.885Z,100959.47
2022-10-17T21:51:37.855Z,100962.97
2022-10-17T21:54:06.055Z,100958.56
2022-10-17T21:56:34.866Z,100970.03
2022-10-17T21:59:01.700Z,100961.25
2022-10-17T22:01:34.900Z,100964.00
2022-10-17T22:04:04.673Z,100966.75
2022-10-17T22:06:39.739Z,100980.09
2022-10-17T22:09:14.450Z,100980.16
2022-10-17T22:11:41.785Z,100969.63
2022-10-17T22:14:12.278Z,100965.25
2022-10-17T22:16:39.318Z,100959.09
2022-10-17T22:19:07.443Z,100963.56
2022-10-17T22:21:36.129Z,100959.97
2022-10-17T22:24:06.003Z,100967.91
2022-10-17T22:26:35.107Z,100962.53
2022-10-17T22:29:02.061Z,100965.09
2022-10-17T22:31:28.929Z,100973.78
2022-10-17T22:33:57.093Z,100965.78
2022-10-17T22:36:24.267Z,100956.88
2022-10-17T22:38:50.986Z,100962.16
2022-10-17T22:41:17.609Z,100959.50
2022-10-17T22:43:44.684Z,100955.13
2022-10-17T22:46:13.388Z,100959.63
2022-10-17T22:48:42.753Z,100957.97
2022-10-17T22:51:09.419Z,100958.94
2022-10-17T22:53:37.462Z,100955.44
2022-10-17T22:56:07.361Z,100962.59
2022-10-17T22:58:35.682Z,100974.22
2022-10-17T23:01:03.247Z,100965.41
2022-10-17T23:03:30.669Z,100968.13
2022-10-17T23:05:57.821Z,100963.78
2022-10-17T23:08:25.360Z,100964.72
2022-10-17T23:10:52.052Z,100964.81
2022-10-17T23:13:21.397Z,100957.00
2022-10-17T23:15:55.721Z,100964.97
2022-10-17T23:18:23.551Z,100961.47
2022-10-17T23:20:51.050Z,100957.97
2022-10-17T23:23:18.654Z,100958.88
2022-10-17T23:25:46.042Z,100951.84
2022-10-17T23:28:12.818Z,100954.50
2022-10-17T23:30:39.630Z,100946.59
2022-10-17T23:33:09.314Z,100951.03
2022-10-17T23:35:36.204Z,100944.84
2022-10-17T23:38:03.378Z,100941.31
2022-10-17T23:40:30.334Z,100940.47
2022-10-17T23:42:56.954Z,100939.56
2022-10-17T23:45:23.785Z,100941.31
2022-10-17T23:47:50.377Z,100936.03
2022-10-17T23:50:17.085Z,100931.63
2022-10-17T23:52:43.798Z,100935.16
2022-10-17T23:55:11.156Z,100938.72
2022-10-17T23:57:37.775Z,100936.94
